CheckWX is a tool to help pilots better visualize weather data.  It is not intended as a substitute for an official pre-flight weather briefing.

23:56:29 UTC

EGJJ METAR
Jersey Airport
Saint Helier, Jersey
Current

36 mins ago

EGJJ 092320Z AUTO 27013KT 9999 OVC003/// 15/15 Q1015 REDZ
Observed
Jul-9 @ 23:20 UTC
Wind
  • 270° at 13 KTS
Visibility
10,000+ meters
Flight Rules
LIFR
Cloud Levels
  • Overcast at 300' AGL
Temperature
15°C / 59°F
Dewpoint
15°C / 59°F
Humidity
100%
Altimeter
29.97" Hg
Pressure
1014.92 hPa
Previous

1 hour ago

EGJJ 092250Z AUTO 26015KT 9999 OVC002/// 15/15 Q1015 REDZ
Observed
Jul-9 @ 22:50 UTC
Wind
  • 260° at 15 KTS
Visibility
10,000+ meters
Flight Rules
LIFR
Cloud Levels
  • Overcast at 200' AGL
Temperature
15°C / 59°F
Dewpoint
15°C / 59°F
Humidity
100%
Altimeter
29.97" Hg
Pressure
1014.92 hPa
Previous

2 hours ago

EGJJ 092220Z AUTO 27014KT 9999 BKN003/// OVC004/// 15/15 Q1015 RERA
Observed
Jul-9 @ 22:20 UTC
Wind
  • 270° at 14 KTS
Visibility
10,000+ meters
Flight Rules
LIFR
Cloud Levels
  • Broken at 300' AGL
  • Overcast at 400' AGL
Temperature
15°C / 59°F
Dewpoint
15°C / 59°F
Humidity
100%
Altimeter
29.97" Hg
Pressure
1014.92 hPa